Time;durP1;ratioP1;P1;durP2;ratioP2;P2;SDS_P1;SDS_P2;PMS_P1;PMS_P2;Temp;Humidity;BMP_temperature;BMP_pressure;BME280_temperature;BME280_humidity;BME280_pressure;Samples;Min_cycle;Max_cycle;Signal;HPM_P1;HPM_P2
2021/10/08 04:57:36;;;;;;;;;57.50;48.25;15.10;57.50;;;;;;5389111;24;8999;-71
2021/10/08 05:00:05;;;;;;;;;58.75;49.00;15.10;57.10;;;;;;4863567;29;8793;-71
2021/10/08 05:02:31;;;;;;;;;53.50;46.00;15.00;57.10;;;;;;4852622;29;8816;-75
2021/10/08 05:04:57;;;;;;;;;57.75;48.75;15.00;57.00;;;;;;4844955;29;8840;-80
2021/10/08 05:07:23;;;;;;;;;62.50;53.00;15.20;57.10;;;;;;4844856;29;8796;-77
2021/10/08 05:09:49;;;;;;;;;54.00;46.00;15.20;57.00;;;;;;4844858;29;8830;-77
2021/10/08 05:12:16;;;;;;;;;44.50;39.00;15.20;57.20;;;;;;4844927;29;8804;-76
2021/10/08 05:14:42;;;;;;;;;23.33;23.33;15.20;56.70;;;;;;4844810;29;8975;-77
2021/10/08 05:17:07;;;;;;;;;20.00;20.00;15.40;56.30;;;;;;4843721;29;8930;-76
2021/10/08 05:19:33;;;;;;;;;44.75;39.25;15.30;56.60;;;;;;4853725;29;8920;-77
2021/10/08 05:21:59;;;;;;;;;53.00;45.25;15.20;56.60;;;;;;4855336;29;8904;-77
2021/10/08 05:24:25;;;;;;;;;44.50;39.25;15.20;58.00;;;;;;4852707;29;8840;-77
2021/10/08 05:26:51;;;;;;;;;49.75;42.75;15.20;57.00;;;;;;4860979;29;8885;-77
2021/10/08 05:29:17;;;;;;;;;70.25;58.00;15.20;56.70;;;;;;4862978;29;9522;-77
2021/10/08 05:31:43;;;;;;;;;75.50;61.75;15.10;57.00;;;;;;4862999;29;8887;-78
2021/10/08 05:34:11;;;;;;;;;65.25;54.75;15.10;57.10;;;;;;4863300;29;8797;-77
2021/10/08 05:36:37;;;;;;;;;63.25;52.50;15.20;56.70;;;;;;4862747;29;8824;-77
2021/10/08 05:39:04;;;;;;;;;60.00;50.00;15.20;57.00;;;;;;4861109;29;8822;-78
2021/10/08 05:41:30;;;;;;;;;54.25;46.00;15.10;57.20;;;;;;4853723;29;8816;-77
2021/10/08 05:43:56;;;;;;;;;52.00;44.25;15.20;57.40;;;;;;4844445;29;8804;-77
2021/10/08 05:46:22;;;;;;;;;53.75;46.00;15.20;57.60;;;;;;4847596;29;8868;-77
2021/10/08 05:48:48;;;;;;;;;52.50;44.25;15.10;57.80;;;;;;4849478;29;9586;-76
2021/10/08 05:51:14;;;;;;;;;24.00;24.00;15.20;58.00;;;;;;4852066;29;8790;-76
2021/10/08 05:53:40;;;;;;;;;13.00;13.00;15.10;57.90;;;;;;4859334;29;8840;-72
2021/10/08 05:56:06;;;;;;;;;15.00;15.00;15.00;58.40;;;;;;4862521;29;8802;-73
2021/10/08 05:58:31;;;;;;;;;13.00;13.00;15.10;59.20;;;;;;4861920;29;8881;-72
2021/10/08 06:00:57;;;;;;;;;12.33;12.33;15.20;58.90;;;;;;4862456;29;8787;-71
2021/10/08 06:03:23;;;;;;;;;15.67;15.67;15.20;59.30;;;;;;4856619;29;8825;-67
2021/10/08 06:05:49;;;;;;;;;26.00;26.00;15.20;58.90;;;;;;4862301;29;8829;-68
2021/10/08 06:08:15;;;;;;;;;18.00;18.00;15.20;59.10;;;;;;4862611;29;8809;-67
2021/10/08 06:10:41;;;;;;;;;20.00;20.00;14.90;59.20;;;;;;4861697;29;8896;-67
2021/10/08 06:13:08;;;;;;;;;23.00;22.67;15.00;59.70;;;;;;4859421;29;8927;-65
2021/10/08 06:15:34;;;;;;;;;24.00;24.00;15.00;60.00;;;;;;4856092;29;8859;-67
2021/10/08 06:18:00;;;;;;;;;20.67;20.67;15.00;59.60;;;;;;4843679;29;8812;-66
2021/10/08 06:20:26;;;;;;;;;20.67;18.67;14.90;60.10;;;;;;4858221;29;8872;-67
2021/10/08 06:22:53;;;;;;;;;11.33;11.33;14.90;60.40;;;;;;4860472;29;8833;-66
2021/10/08 06:25:19;;;;;;;;;16.00;16.00;15.00;60.30;;;;;;4849124;29;8840;-67
2021/10/08 06:27:51;;;;;;;;;13.00;13.00;14.90;60.70;;;;;;4851974;29;8860;-64
2021/10/08 06:30:18;;;;;;;;;16.33;16.33;15.00;60.80;;;;;;4843628;29;8816;-65
2021/10/08 06:32:44;;;;;;;;;10.00;10.00;15.10;60.80;;;;;;4852213;29;8825;-64
2021/10/08 06:35:10;;;;;;;;;16.67;16.67;15.10;60.60;;;;;;4845114;29;8938;-64
2021/10/08 06:37:36;;;;;;;;;13.33;13.33;15.20;60.40;;;;;;4849368;29;8944;-64
2021/10/08 06:40:03;;;;;;;;;13.33;13.33;15.30;60.00;;;;;;4853950;29;8839;-64
2021/10/08 06:42:29;;;;;;;;;16.00;16.00;15.20;59.80;;;;;;4843466;29;8792;-64
2021/10/08 06:44:57;;;;;;;;;14.00;14.00;15.20;60.00;;;;;;4843287;29;8834;-65
2021/10/08 06:47:23;;;;;;;;;13.00;13.00;15.20;60.10;;;;;;4846530;29;8836;-65
2021/10/08 06:49:49;;;;;;;;;16.00;16.00;15.30;60.20;;;;;;4853446;29;8816;-67
2021/10/08 06:52:15;;;;;;;;;14.67;14.67;15.30;59.90;;;;;;4851966;29;8847;-64
2021/10/08 06:54:42;;;;;;;;;14.00;14.00;15.30;59.90;;;;;;4861650;29;8814;-66
2021/10/08 06:57:08;;;;;;;;;23.33;23.33;15.40;59.90;;;;;;4861582;29;8874;-67
2021/10/08 06:59:35;;;;;;;;;14.67;14.67;15.50;59.60;;;;;;4861731;29;8826;-66
2021/10/08 07:02:01;;;;;;;;;14.00;14.00;15.70;58.90;;;;;;4861957;29;8862;-66
2021/10/08 07:04:26;;;;;;;;;11.00;11.00;15.50;58.90;;;;;;4861029;29;8814;-66
2021/10/08 07:06:52;;;;;;;;;13.67;12.67;15.30;59.50;;;;;;4854383;29;8849;-66
2021/10/08 07:09:18;;;;;;;;;14.00;14.00;15.20;59.60;;;;;;4860658;29;8797;-67
2021/10/08 07:11:44;;;;;;;;;22.00;21.67;15.30;60.00;;;;;;4861802;29;8830;-67
2021/10/08 07:14:11;;;;;;;;;20.67;20.67;15.20;59.90;;;;;;4860993;29;9408;-65
2021/10/08 07:16:37;;;;;;;;;19.33;19.33;15.30;60.00;;;;;;4861455;29;8887;-66
2021/10/08 07:19:08;;;;;;;;;19.00;19.00;15.10;60.30;;;;;;4861213;29;8785;-68
2021/10/08 07:21:35;;;;;;;;;13.67;13.67;15.10;60.30;;;;;;4863005;29;8809;-69
2021/10/08 07:24:02;;;;;;;;;18.00;18.00;15.30;60.10;;;;;;4864575;29;8991;-71
2021/10/08 07:26:31;;;;;;;;;17.67;17.67;15.30;59.80;;;;;;4864058;29;8821;-62
2021/10/08 07:28:57;;;;;;;;;17.00;17.00;15.50;59.40;;;;;;4864405;29;9456;-68
2021/10/08 07:31:23;;;;;;;;;19.00;19.00;15.60;59.00;;;;;;4864079;29;8806;-67
2021/10/08 07:33:48;;;;;;;;;13.00;13.00;15.70;58.30;;;;;;4864165;29;8882;-72
2021/10/08 07:36:15;;;;;;;;;19.00;19.00;15.30;58.80;;;;;;4863999;29;8823;-64
2021/10/08 07:38:41;;;;;;;;;26.00;25.33;15.40;59.20;;;;;;4863963;29;8884;-67
2021/10/08 07:41:08;;;;;;;;;20.67;20.33;15.40;59.30;;;;;;4863892;29;8789;-66
2021/10/08 07:43:36;;;;;;;;;17.33;17.33;15.70;59.00;;;;;;4863857;29;8789;-66
2021/10/08 07:46:06;;;;;;;;;14.00;14.00;15.70;59.10;;;;;;4863848;29;8857;-66
2021/10/08 07:48:33;;;;;;;;;8.00;8.00;15.90;58.40;;;;;;4863436;29;8790;-65
2021/10/08 07:50:59;;;;;;;;;13.00;13.00;15.60;58.50;;;;;;4857720;29;8816;-68
2021/10/08 07:53:26;;;;;;;;;16.67;16.67;15.60;58.80;;;;;;4861175;29;8809;-67
2021/10/08 07:55:52;;;;;;;;;16.00;16.00;15.50;58.80;;;;;;4863477;29;8797;-69
2021/10/08 07:58:21;;;;;;;;;14.00;14.00;15.50;59.20;;;;;;4863285;29;8838;-68
2021/10/08 08:00:46;;;;;;;;;16.33;16.33;15.50;58.50;;;;;;4859142;29;8928;-63
2021/10/08 08:03:12;;;;;;;;;16.00;16.00;15.50;58.40;;;;;;4863463;29;9063;-63
2021/10/08 08:05:38;;;;;;;;;13.00;13.00;15.40;58.60;;;;;;4863158;29;8901;-65
2021/10/08 08:08:04;;;;;;;;;11.00;11.00;15.30;58.00;;;;;;4859474;29;8818;-59
2021/10/08 08:10:30;;;;;;;;;13.00;13.00;15.60;58.70;;;;;;4861330;29;8902;-65
2021/10/08 08:12:55;;;;;;;;;10.67;10.67;15.60;58.20;;;;;;4861436;29;8802;-66
2021/10/08 08:15:21;;;;;;;;;12.00;12.00;15.80;58.00;;;;;;4861702;29;8785;-67
2021/10/08 08:17:47;;;;;;;;;14.67;14.67;15.70;57.70;;;;;;4863555;29;8801;-67
2021/10/08 08:20:16;;;;;;;;;21.00;21.00;15.80;57.80;;;;;;4863085;29;8793;-67
2021/10/08 08:22:42;;;;;;;;;17.00;17.00;15.80;58.30;;;;;;4861418;29;8782;-67
2021/10/08 08:25:08;;;;;;;;;18.67;18.67;15.70;57.60;;;;;;4861928;29;9500;-67
2021/10/08 08:27:34;;;;;;;;;17.00;17.00;16.00;57.80;;;;;;4862687;29;9437;-67
2021/10/08 08:30:02;;;;;;;;;17.00;17.00;15.80;57.50;;;;;;4862712;29;8770;-66
2021/10/08 08:32:29;;;;;;;;;15.33;15.33;15.70;57.50;;;;;;4861744;29;8785;-64
2021/10/08 08:34:55;;;;;;;;;17.67;17.67;15.90;57.70;;;;;;4862571;29;8805;-66
2021/10/08 08:37:21;;;;;;;;;18.33;18.33;16.00;57.20;;;;;;4860842;29;8838;-66
2021/10/08 08:39:47;;;;;;;;;18.67;18.67;15.90;57.20;;;;;;4860504;29;8810;-62
2021/10/08 08:42:19;;;;;;;;;24.00;24.00;15.80;57.80;;;;;;4862641;29;8789;-62
2021/10/08 08:44:46;;;;;;;;;10.67;10.67;15.80;57.50;;;;;;4855536;29;8805;-63
2021/10/08 08:47:19;;;;;;;;;14.00;14.00;15.80;57.90;;;;;;4861181;29;8824;-62
2021/10/08 08:49:46;;;;;;;;;19.00;19.00;15.70;57.50;;;;;;4862084;29;8793;-63
2021/10/08 08:52:13;;;;;;;;;15.00;15.00;15.80;58.00;;;;;;4861290;29;8861;-63
2021/10/08 08:54:41;;;;;;;;;15.00;15.00;15.80;58.30;;;;;;4861380;29;8801;-61
2021/10/08 08:57:16;;;;;;;;;12.00;12.00;15.60;57.80;;;;;;4856878;29;8887;-61
2021/10/08 09:00:03;;;;;;;;;17.33;17.33;15.60;58.20;;;;;;4855660;29;8804;-63
2021/10/08 09:02:31;;;;;;;;;17.00;17.00;15.60;58.60;;;;;;4852531;29;8824;-64
2021/10/08 09:04:57;;;;;;;;;20.67;20.67;15.60;58.50;;;;;;4844491;29;8804;-63
2021/10/08 09:07:29;;;;;;;;;17.33;17.33;15.80;57.70;;;;;;4844305;29;8907;-61
2021/10/08 09:10:07;;;;;;;;;25.00;25.00;15.80;57.80;;;;;;4861759;29;8925;-58
2021/10/08 09:12:34;;;;;;;;;21.67;21.67;15.90;57.60;;;;;;4862659;29;8817;-57
2021/10/08 09:15:00;;;;;;;;;22.00;22.00;16.10;56.80;;;;;;4863031;29;8898;-58
2021/10/08 09:17:27;;;;;;;;;18.67;18.67;16.20;56.90;;;;;;4863154;29;9463;-63
2021/10/08 09:20:13;;;;;;;;;17.00;17.00;16.00;56.50;;;;;;4862641;29;8797;-62
2021/10/08 09:22:43;;;;;;;;;13.67;13.67;16.00;56.90;;;;;;4862970;29;8813;-57
2021/10/08 09:25:12;;;;;;;;;16.67;16.67;16.00;56.70;;;;;;4862922;29;9078;-60
2021/10/08 09:27:39;;;;;;;;;21.67;21.67;16.00;56.90;;;;;;4856246;29;8816;-71
2021/10/08 09:30:06;;;;;;;;;19.33;19.33;16.30;56.50;;;;;;4859662;29;8959;-59
2021/10/08 09:32:51;;;;;;;;;15.67;15.67;16.10;56.90;;;;;;4847694;29;8828;-58
2021/10/08 09:35:23;;;;;;;;;15.33;15.33;16.30;56.40;;;;;;4844096;29;8875;-66
2021/10/08 09:38:03;;;;;;;;;13.67;13.67;16.30;55.40;;;;;;4852921;29;8823;-58
2021/10/08 09:40:30;;;;;;;;;15.67;15.67;16.30;56.00;;;;;;4844324;29;8780;-57
2021/10/08 09:43:02;;;;;;;;;14.33;14.33;16.30;56.10;;;;;;4844057;29;8803;-57
2021/10/08 09:45:52;;;;;;;;;13.00;13.00;16.50;56.10;;;;;;4857573;29;8833;-57
2021/10/08 09:48:19;;;;;;;;;16.00;16.00;16.50;55.60;;;;;;4844105;29;8804;-57
2021/10/08 09:51:06;;;;;;;;;13.00;13.00;16.70;55.60;;;;;;4861863;29;8820;-58
2021/10/08 09:53:34;;;;;;;;;10.67;10.67;16.60;55.40;;;;;;4862402;29;8924;-57
2021/10/08 09:56:01;;;;;;;;;13.00;13.00;16.40;56.00;;;;;;4862598;29;8793;-59
2021/10/08 09:58:27;;;;;;;;;13.00;13.00;16.20;56.20;;;;;;4858639;29;8845;-58
2021/10/08 10:01:03;;;;;;;;;15.00;15.00;16.50;56.70;;;;;;4857720;29;8881;-62
2021/10/08 10:03:30;;;;;;;;;11.33;11.33;16.50;56.30;;;;;;4859312;29;9502;-59
2021/10/08 10:06:06;;;;;;;;;9.67;9.67;16.50;55.40;;;;;;4858998;29;8845;-56
2021/10/08 10:08:32;;;;;;;;;10.67;10.67;16.60;55.80;;;;;;4852284;29;8835;-58
2021/10/08 10:10:58;;;;;;;;;12.00;12.00;16.70;55.80;;;;;;4849606;29;9448;-55
2021/10/08 10:13:25;;;;;;;;;14.33;14.33;16.70;56.00;;;;;;4856414;29;8800;-56
2021/10/08 10:15:52;;;;;;;;;14.33;14.33;16.80;55.40;;;;;;4860127;29;8817;-58
2021/10/08 10:18:20;;;;;;;;;16.33;16.33;16.90;55.20;;;;;;4843725;29;8807;-60
2021/10/08 10:20:51;;;;;;;;;17.67;17.67;17.10;55.80;;;;;;4860554;29;8914;-60
2021/10/08 10:23:19;;;;;;;;;15.33;15.33;17.20;54.70;;;;;;4862247;29;8757;-60
2021/10/08 10:25:48;;;;;;;;;17.00;17.00;17.30;54.50;;;;;;4862337;29;8856;-61
2021/10/08 10:28:15;;;;;;;;;12.00;12.00;17.10;54.60;;;;;;4856528;29;8900;-62
2021/10/08 10:30:41;;;;;;;;;14.00;14.00;17.20;53.90;;;;;;4852332;29;8855;-61
2021/10/08 10:33:08;;;;;;;;;17.00;17.00;17.10;54.10;;;;;;4852149;29;8865;-59
2021/10/08 10:35:45;;;;;;;;;12.67;12.67;17.00;54.50;;;;;;4851635;29;8814;-60
2021/10/08 10:38:35;;;;;;;;;14.67;14.67;16.90;53.90;;;;;;4860667;29;8820;-61
2021/10/08 10:41:07;;;;;;;;;17.67;17.67;17.00;53.90;;;;;;4861974;29;8813;-61
2021/10/08 10:43:39;;;;;;;;;13.00;13.00;17.00;55.60;;;;;;4844567;29;8807;-62
2021/10/08 10:51:58;;;;;;;;;9.33;9.33;16.90;54.10;;;;;;4851386;29;8891;-61
2021/10/08 10:54:49;;;;;;;;;10.33;10.33;16.70;54.20;;;;;;4856296;29;9453;-62
2021/10/08 10:57:18;;;;;;;;;12.00;12.00;16.70;54.40;;;;;;4853457;29;8883;-60
2021/10/08 10:59:45;;;;;;;;;11.33;11.33;16.70;53.90;;;;;;4847130;29;8804;-61
2021/10/08 11:02:16;;;;;;;;;13.00;13.00;16.70;53.10;;;;;;4847336;29;8883;-62
2021/10/08 11:04:48;;;;;;;;;11.33;11.33;16.80;53.00;;;;;;4847130;29;8800;-65
2021/10/08 11:07:16;;;;;;;;;12.00;12.00;16.90;53.60;;;;;;4847195;29;8812;-63
2021/10/08 11:10:04;;;;;;;;;15.33;15.33;16.90;53.60;;;;;;4846942;29;8922;-63
2021/10/08 11:12:42;;;;;;;;;12.00;12.00;17.00;53.10;;;;;;4858452;29;8824;-62
2021/10/08 11:15:17;;;;;;;;;9.33;9.33;16.80;53.30;;;;;;4860702;29;8806;-63
2021/10/08 11:18:02;;;;;;;;;16.00;16.00;16.70;54.70;;;;;;4857978;29;8802;-63
2021/10/08 11:20:31;;;;;;;;;18.00;18.00;16.70;54.60;;;;;;4855883;29;8802;-63
2021/10/08 11:23:06;;;;;;;;;14.00;14.00;16.70;54.40;;;;;;4855685;29;8810;-63
2021/10/08 11:25:35;;;;;;;;;12.67;12.67;16.90;54.20;;;;;;4861835;29;8915;-63
2021/10/08 11:28:02;;;;;;;;;14.67;14.67;16.80;53.40;;;;;;4847000;29;8843;-62
2021/10/08 11:30:29;;;;;;;;;12.67;12.67;16.90;53.90;;;;;;4864885;29;8794;-63
2021/10/08 11:32:57;;;;;;;;;15.33;15.33;16.80;53.00;;;;;;4864970;29;9495;-64
2021/10/08 11:35:34;;;;;;;;;16.33;16.33;16.80;53.40;;;;;;4864831;29;8790;-64
2021/10/08 11:38:01;;;;;;;;;17.00;17.00;16.80;53.80;;;;;;4864500;29;8849;-66
2021/10/08 11:40:36;;;;;;;;;14.00;14.00;16.80;54.50;;;;;;4864639;29;8928;-63
2021/10/08 11:43:11;;;;;;;;;11.33;11.33;16.70;53.10;;;;;;4865062;29;8794;-64
2021/10/08 11:45:49;;;;;;;;;11.67;11.67;16.90;52.90;;;;;;4864885;29;8853;-64
2021/10/08 11:48:24;;;;;;;;;13.33;13.33;17.30;52.30;;;;;;4864973;29;8840;-65
2021/10/08 11:53:15;;;;;;;;;10.00;10.00;17.20;51.10;;;;;;4864867;29;8801;-61
2021/10/08 11:55:41;;;;;;;;;8.33;8.33;17.50;50.50;;;;;;4864832;29;8857;-61
2021/10/08 11:58:08;;;;;;;;;16.00;14.67;17.40;50.10;;;;;;4864141;29;8877;-63
2021/10/08 12:00:41;;;;;;;;;17.33;17.33;17.40;49.90;;;;;;4864760;29;8817;-62
2021/10/08 12:03:09;;;;;;;;;14.67;14.67;17.60;49.60;;;;;;4864381;29;8798;-63
2021/10/08 12:05:51;;;;;;;;;11.00;11.00;17.70;49.20;;;;;;4864357;29;8864;-62
2021/10/08 12:08:38;;;;;;;;;14.00;14.00;18.30;48.80;;;;;;4863521;29;8793;-60
2021/10/08 12:11:08;;;;;;;;;15.33;15.33;18.60;47.60;;;;;;4857064;29;8797;-61
2021/10/08 12:13:38;;;;;;;;;21.00;21.00;18.30;47.30;;;;;;4850262;29;8816;-60
2021/10/08 12:16:05;;;;;;;;;16.67;16.67;18.50;47.00;;;;;;4864267;29;8805;-61
2021/10/08 12:18:30;;;;;;;;;14.00;14.00;18.40;47.40;;;;;;4859145;29;8873;-59
2021/10/08 12:21:11;;;;;;;;;16.33;16.33;18.20;47.00;;;;;;4860637;29;8794;-59
2021/10/08 12:23:37;;;;;;;;;26.67;26.67;18.30;47.00;;;;;;4862231;29;8798;-62
2021/10/08 12:26:04;;;;;;;;;19.00;19.00;18.20;47.90;;;;;;4862682;29;8940;-60
2021/10/08 12:28:30;;;;;;;;;17.33;17.33;18.10;47.10;;;;;;4862670;29;8931;-60
2021/10/08 12:31:05;;;;;;;;;18.00;18.00;18.10;47.60;;;;;;4854960;29;8802;-61
2021/10/08 12:33:34;;;;;;;;;18.33;18.33;18.00;47.60;;;;;;4859953;29;8790;-61
2021/10/08 12:36:20;;;;;;;;;16.67;16.67;17.60;47.90;;;;;;4862603;29;8777;-63
2021/10/08 12:39:00;;;;;;;;;17.33;17.33;17.20;48.00;;;;;;4863094;29;8805;-61
2021/10/08 12:41:42;;;;;;;;;16.67;16.67;17.20;49.20;;;;;;4862765;29;9468;-64
2021/10/08 12:44:21;;;;;;;;;21.00;21.00;17.10;49.00;;;;;;4873929;29;8819;-65
2021/10/08 12:50:08;;;;;;;;;18.00;18.00;16.90;49.10;;;;;;4839086;29;8829;-67
2021/10/08 12:52:51;;;;;;;;;19.33;19.33;16.90;49.80;;;;;;4863650;29;8790;-64
2021/10/08 12:55:25;;;;;;;;;17.33;17.33;16.70;50.10;;;;;;4863848;29;9483;-58
2021/10/08 12:58:15;;;;;;;;;20.33;20.33;16.70;51.40;;;;;;4863226;29;8853;-64
2021/10/08 13:00:47;;;;;;;;;17.33;17.33;16.80;50.30;;;;;;4863499;29;8835;-65
2021/10/08 13:03:50;;;;;;;;;24.00;24.00;16.60;50.20;;;;;;4860418;29;8812;-63
2021/10/08 13:06:18;;;;;;;;;13.67;13.67;16.60;49.60;;;;;;4852625;29;9520;-63
2021/10/08 13:09:06;;;;;;;;;38.67;36.00;16.70;48.90;;;;;;4859252;29;8797;-65
2021/10/08 13:11:37;;;;;;;;;23.33;23.33;16.70;48.90;;;;;;4859013;29;8798;-65
2021/10/08 13:14:02;;;;;;;;;19.00;19.00;16.40;48.60;;;;;;4860810;29;9537;-65
2021/10/08 13:16:36;;;;;;;;;21.33;21.33;16.40;48.80;;;;;;4859806;29;8825;-64
2021/10/08 13:19:02;;;;;;;;;12.00;12.00;16.30;49.00;;;;;;4855151;29;8866;-64
2021/10/08 13:21:29;;;;;;;;;20.33;20.33;16.50;49.20;;;;;;4861825;29;8790;-67
2021/10/08 13:23:57;;;;;;;;;28.00;28.00;16.40;49.00;;;;;;4861928;29;8802;-63
2021/10/08 13:26:23;;;;;;;;;42.25;36.75;16.50;49.60;;;;;;4860121;29;8882;-63
2021/10/08 13:28:50;;;;;;;;;48.00;41.25;16.70;49.50;;;;;;4854497;29;8800;-62
2021/10/08 13:31:16;;;;;;;;;24.33;24.33;16.80;48.60;;;;;;4844693;29;9554;-65
2021/10/08 13:33:42;;;;;;;;;20.33;20.33;16.50;48.40;;;;;;4857509;29;8794;-64
2021/10/08 13:36:09;;;;;;;;;16.67;16.67;16.30;47.30;;;;;;4861552;29;8802;-61
2021/10/08 13:38:35;;;;;;;;;15.33;15.33;16.30;48.20;;;;;;4859056;29;8832;-66
2021/10/08 13:41:02;;;;;;;;;7.00;7.00;16.20;47.80;;;;;;4860999;29;8816;-62
2021/10/08 13:43:29;;;;;;;;;25.00;25.00;16.10;48.60;;;;;;4861452;29;8790;-60
2021/10/08 13:45:55;;;;;;;;;16.67;16.67;16.10;48.90;;;;;;4857368;29;8843;-64
2021/10/08 13:48:21;;;;;;;;;40.00;37.00;16.10;48.30;;;;;;4854713;29;8830;-64
2021/10/08 13:50:47;;;;;;;;;48.75;41.25;15.90;48.60;;;;;;4861321;29;8903;-63
2021/10/08 13:53:14;;;;;;;;;28.33;27.00;15.80;49.10;;;;;;4859473;29;8948;-64
2021/10/08 13:55:40;;;;;;;;;15.00;15.00;15.90;48.30;;;;;;4850281;29;8801;-63
2021/10/08 13:58:08;;;;;;;;;14.67;14.67;15.90;49.10;;;;;;4853993;29;8890;-65
2021/10/08 14:00:43;;;;;;;;;19.33;19.33;15.80;49.20;;;;;;4862231;29;8817;-64
2021/10/08 14:11:24;;;;;;;;;47.00;41.00;15.60;49.70;;;;;;4853936;29;8774;-62
2021/10/08 14:13:50;;;;;;;;;58.00;48.50;15.60;50.00;;;;;;4857132;29;8790;-63
2021/10/08 14:16:16;;;;;;;;;32.67;31.00;15.80;49.70;;;;;;4861279;29;8812;-61
2021/10/08 14:18:42;;;;;;;;;42.00;38.00;15.80;49.10;;;;;;4860442;29;8802;-65
2021/10/08 14:21:09;;;;;;;;;21.00;21.00;15.60;49.50;;;;;;4858159;29;8893;-55
2021/10/08 14:23:34;;;;;;;;;25.00;25.00;15.30;49.80;;;;;;4859788;29;8797;-58
2021/10/08 14:26:00;;;;;;;;;22.33;22.33;15.40;50.70;;;;;;4854414;29;8892;-63
2021/10/08 14:28:26;;;;;;;;;27.67;27.67;15.30;50.60;;;;;;4856431;29;8809;-63
2021/10/08 14:30:52;;;;;;;;;21.00;21.00;15.20;49.90;;;;;;4850895;29;8818;-69
2021/10/08 14:33:18;;;;;;;;;22.33;22.33;15.20;49.90;;;;;;4843509;29;8922;-58
2021/10/08 14:35:44;;;;;;;;;41.75;38.25;15.20;50.60;;;;;;4843561;29;8911;-56
2021/10/08 14:38:10;;;;;;;;;26.00;26.00;15.30;50.80;;;;;;4853900;29;8821;-59
2021/10/08 14:40:36;;;;;;;;;23.67;23.67;15.40;50.50;;;;;;4844127;29;8812;-59
2021/10/08 14:43:01;;;;;;;;;18.00;18.00;15.20;51.10;;;;;;4855092;29;8810;-57
2021/10/08 14:45:28;;;;;;;;;26.33;26.33;15.30;51.20;;;;;;4850961;29;8851;-54
2021/10/08 14:47:53;;;;;;;;;27.00;27.00;15.20;51.70;;;;;;4843438;29;9496;-57
2021/10/08 14:50:19;;;;;;;;;23.33;23.00;15.20;51.50;;;;;;4854666;29;8927;-57
2021/10/08 14:52:46;;;;;;;;;17.67;17.67;15.00;52.40;;;;;;4858147;29;8844;-59
2021/10/08 14:57:58;;;;;;;;;27.00;27.00;15.20;52.50;;;;;;4851385;29;8872;-61
2021/10/08 15:00:26;;;;;;;;;41.75;38.25;15.00;52.80;;;;;;4854626;29;8908;-58
2021/10/08 15:02:53;;;;;;;;;39.25;37.00;15.00;53.10;;;;;;4862054;29;9480;-61
2021/10/08 15:05:19;;;;;;;;;48.00;41.25;15.10;53.30;;;;;;4861950;29;9203;-62
2021/10/08 15:07:46;;;;;;;;;68.25;55.50;15.00;52.80;;;;;;4861707;29;8810;-61
2021/10/08 15:10:13;;;;;;;;;67.00;55.75;15.00;53.20;;;;;;4861791;29;8876;-61
2021/10/08 15:12:39;;;;;;;;;70.75;59.00;15.00;53.10;;;;;;4856518;29;8801;-61
2021/10/08 15:15:05;;;;;;;;;61.75;51.75;15.00;53.30;;;;;;4860853;29;8809;-61
2021/10/08 15:17:31;;;;;;;;;55.75;47.75;14.80;53.10;;;;;;4860209;29;8798;-62
2021/10/08 15:19:57;;;;;;;;;28.00;28.00;14.70;53.10;;;;;;4860612;29;8807;-61
2021/10/08 15:22:23;;;;;;;;;39.50;37.25;14.70;52.70;;;;;;4860086;29;9445;-61
2021/10/08 15:24:49;;;;;;;;;54.25;47.00;14.60;52.90;;;;;;4860646;29;8801;-61
2021/10/08 15:27:15;;;;;;;;;35.75;34.50;14.70;53.10;;;;;;4860770;29;8857;-62
2021/10/08 15:29:40;;;;;;;;;33.75;33.25;14.60;52.90;;;;;;4860126;29;8844;-61
2021/10/08 15:32:06;;;;;;;;;33.00;33.00;14.60;52.90;;;;;;4861492;29;9528;-62
2021/10/08 15:34:32;;;;;;;;;44.25;39.25;14.50;52.00;;;;;;4861647;29;8821;-61
2021/10/08 15:36:58;;;;;;;;;48.00;41.75;14.50;52.40;;;;;;4861473;29;8810;-61
2021/10/08 15:39:24;;;;;;;;;34.50;33.75;14.50;52.40;;;;;;4861581;29;8821;-61
2021/10/08 15:41:50;;;;;;;;;30.67;30.67;14.50;52.50;;;;;;4862277;29;8781;-61
2021/10/08 15:44:17;;;;;;;;;28.00;28.00;14.50;52.10;;;;;;4864537;29;8813;-62
2021/10/08 15:46:44;;;;;;;;;33.50;33.50;14.50;52.10;;;;;;4864730;29;8844;-61
2021/10/08 15:49:10;;;;;;;;;54.00;46.25;14.60;52.40;;;;;;4864692;29;8805;-62
2021/10/08 15:51:37;;;;;;;;;45.25;39.00;14.60;52.20;;;;;;4864770;29;8785;-61
2021/10/08 15:54:03;;;;;;;;;52.50;44.75;14.60;52.30;;;;;;4864932;29;8797;-61
2021/10/08 15:56:29;;;;;;;;;29.50;29.50;14.60;52.00;;;;;;4864511;29;9468;-62
2021/10/08 15:58:55;;;;;;;;;39.50;36.00;14.60;52.60;;;;;;4864014;29;8829;-61
2021/10/08 16:01:21;;;;;;;;;62.25;52.25;14.50;52.50;;;;;;4864604;29;8857;-61
2021/10/08 16:03:47;;;;;;;;;63.50;52.50;14.30;52.60;;;;;;4864523;29;8828;-61
2021/10/08 16:06:13;;;;;;;;;58.50;49.50;14.30;53.00;;;;;;4864420;29;8837;-61
2021/10/08 16:08:39;;;;;;;;;60.75;50.00;14.60;52.90;;;;;;4864461;29;8824;-61
2021/10/08 16:11:06;;;;;;;;;57.00;48.75;14.50;52.70;;;;;;4864676;29;8892;-61
2021/10/08 16:13:36;;;;;;;;;28.50;28.50;14.50;52.50;;;;;;4863961;29;8798;-62
2021/10/08 16:16:03;;;;;;;;;29.67;29.67;14.40;52.90;;;;;;4863336;29;8785;-66
2021/10/08 16:18:35;;;;;;;;;20.67;20.67;14.40;52.70;;;;;;4864299;29;8840;-66
2021/10/08 16:21:01;;;;;;;;;26.00;26.00;14.40;53.30;;;;;;4845891;29;8836;-66
2021/10/08 16:23:27;;;;;;;;;43.25;39.00;14.40;53.70;;;;;;4845926;29;8843;-67
2021/10/08 16:25:53;;;;;;;;;31.67;30.33;14.50;54.30;;;;;;4845646;29;8919;-65
2021/10/08 16:28:19;;;;;;;;;40.50;37.25;14.40;54.00;;;;;;4845478;29;8844;-65
2021/10/08 16:30:45;;;;;;;;;44.75;40.50;14.40;54.80;;;;;;4845623;29;8827;-67
2021/10/08 16:33:11;;;;;;;;;52.75;45.75;14.20;55.30;;;;;;4845803;29;9570;-65
2021/10/08 16:35:37;;;;;;;;;55.50;46.00;14.30;55.70;;;;;;4845751;29;8902;-65
2021/10/08 16:38:04;;;;;;;;;51.75;44.50;14.20;55.90;;;;;;4857239;29;9457;-65
2021/10/08 16:40:30;;;;;;;;;61.50;51.50;14.20;56.60;;;;;;4863950;29;8829;-66
2021/10/08 16:42:56;;;;;;;;;60.00;51.00;14.00;56.80;;;;;;4863460;29;8799;-65
2021/10/08 16:45:23;;;;;;;;;38.75;35.75;14.10;56.90;;;;;;4863751;29;8858;-65
2021/10/08 16:47:51;;;;;;;;;46.75;40.75;14.00;56.70;;;;;;4864027;29;8809;-66
2021/10/08 16:50:18;;;;;;;;;59.75;49.75;13.60;57.00;;;;;;4863451;29;8813;-63
2021/10/08 16:52:45;;;;;;;;;51.25;44.75;13.50;58.20;;;;;;4863874;29;8793;-65
2021/10/08 16:55:17;;;;;;;;;44.00;39.00;13.60;58.30;;;;;;4863100;29;8909;-67
2021/10/08 16:57:47;;;;;;;;;54.50;46.50;13.60;57.20;;;;;;4861175;29;9554;-67
2021/10/08 17:00:14;;;;;;;;;50.50;43.75;13.70;58.00;;;;;;4863617;29;8813;-65
2021/10/08 17:02:41;;;;;;;;;42.75;37.50;13.90;57.60;;;;;;4863718;29;8820;-66
2021/10/08 17:05:08;;;;;;;;;46.50;40.50;13.90;57.80;;;;;;4863411;29;8830;-66
2021/10/08 17:07:34;;;;;;;;;41.25;37.25;13.80;58.00;;;;;;4863623;29;8798;-65
2021/10/08 17:10:01;;;;;;;;;54.75;45.50;13.80;58.50;;;;;;4863451;29;8805;-66
2021/10/08 17:12:27;;;;;;;;;59.50;49.50;13.70;58.60;;;;;;4863438;29;8786;-66
2021/10/08 17:14:53;;;;;;;;;73.00;60.00;13.70;58.60;;;;;;4851741;29;8835;-67
2021/10/08 17:17:20;;;;;;;;;78.75;65.75;13.80;58.40;;;;;;4844764;29;8800;-67
2021/10/08 17:19:48;;;;;;;;;61.75;52.00;13.90;59.10;;;;;;4854229;29;8829;-65
2021/10/08 17:22:14;;;;;;;;;78.75;60.25;13.80;58.40;;;;;;4863174;29;8809;-66
2021/10/08 17:24:40;;;;;;;;;79.75;67.50;14.10;58.40;;;;;;4862990;29;8824;-67
2021/10/08 17:27:22;;;;;;;;;82.00;73.75;14.00;58.60;;;;;;4862693;29;8930;-67
2021/10/08 17:35:11;;;;;;;;;69.75;58.75;14.20;58.10;;;;;;4863011;29;8758;-67
2021/10/08 17:37:37;;;;;;;;;71.75;58.00;14.10;57.90;;;;;;4862949;29;8823;-67
2021/10/08 17:40:04;;;;;;;;;55.00;46.00;14.00;58.30;;;;;;4863160;29;8812;-67
2021/10/08 17:42:30;;;;;;;;;48.75;43.00;13.90;58.60;;;;;;4863102;29;8794;-65
2021/10/08 17:44:56;;;;;;;;;24.67;24.67;14.00;58.30;;;;;;4862776;29;8829;-65
2021/10/08 17:47:22;;;;;;;;;27.67;27.67;13.70;58.20;;;;;;4862649;29;8841;-67
2021/10/08 17:49:51;;;;;;;;;25.00;25.00;13.90;58.50;;;;;;4862473;29;8920;-67
2021/10/08 17:52:17;;;;;;;;;21.00;21.00;13.90;58.40;;;;;;4862899;29;8789;-67
2021/10/08 17:54:43;;;;;;;;;23.00;23.00;14.00;58.10;;;;;;4862832;29;8797;-66
2021/10/08 17:57:10;;;;;;;;;23.67;23.67;13.90;57.20;;;;;;4862356;29;8873;-65
2021/10/08 17:59:36;;;;;;;;;20.00;20.00;14.00;58.10;;;;;;4862514;29;8889;-65
2021/10/08 18:02:03;;;;;;;;;23.33;23.00;14.10;58.00;;;;;;4862794;29;8790;-66
2021/10/08 18:04:28;;;;;;;;;30.75;30.75;14.10;57.30;;;;;;4862377;29;8802;-66
2021/10/08 18:06:54;;;;;;;;;27.50;27.50;14.00;57.30;;;;;;4861881;29;8858;-66
2021/10/08 18:09:20;;;;;;;;;23.00;23.00;14.10;57.10;;;;;;4862941;29;8794;-66